Main page
METAR-TAF:

METAR-TAF

Airports :

Memmingen, Germany

latitude: 47-59-33N, longitude: 10-14-37E, elevation: 633 m

Current weather observation

The report was made 34 minutes ago, at 16:50 UTC
Wind 11 kt from the East/Northeast
Temperature 18°C
Humidity 37%
Pressure 1004 hPa
Visibility 10 km or more
no clouds below 1500 m and no cumulonimbus

METAR: EDJA 221650Z 06011KT CAVOK 18/03 Q1004

Time: 19:24 (17:24 UTC)

Forecast

The report was made 3 hours and 24 minutes ago, at 14:00 UTC
Forecast valid from 22 at 15 UTC to 22 at 24 UTC
Wind 15 kt from the East/Northeast with gusts up to 25 kt
Visibility 10 km or more
no clouds below 1500 m and no cumulonimbus
Becoming
from 22 at 17 UTC to 22 at 19 UTC
Wind 8 kt from the East/Northeast

TAF: EDJA 221400Z 2215/2224 06015G25KT CAVOK BECMG 2217/2219 06008KT

Weather observations and forecasts of more than 4000 airports (METAR and TAF reports).

The available stations are represented by yellow and red dots on the map.

Hover mouse over dot to see the name of the station.

Then click to see weather observations and forecasts.

To change the map : click on the green buttons with a black cross to zoom in, on the green button with a dash to zoom out, or on the green arrows for adjacent maps.


METAR-TAF: